Port Said Airport, Egypt

08:28 EET 21. Duben 2015 (GMT +0200)
Port Said | | Change Station
CLOSE
Current Station
Letiště
Location: Port Said Airport,
Nadmořská výška: 7 ft
Poblíž povětrnostní stanice

Výška 7 ft 31.28 °N, 32.24 °E | Updated 1 hour ago

Partly Cloudy
Částečně oblačno
66 °F
Pocit jako 66 °F
S
15
Vítr proměnlivý Vítr od SZ

Dnes
Vysoké -- | Nízké -- °F
--% Možnost srážek
Včera
Vysoké -- | Nízké -- °F
Precip. -- inčů
5:16 AM 6:22 PM
Dorůstající srpek, 8% visible
Tlak 29.92 inčů
Viditelnost 6.2 mílí
Zataženo Nemnoho 2500 ft
Rosný bod 59 °F
Vlhkost 78%
Dešťové srážky 0.00 inčů
Sněhová pokrývka Není k dispozici
UV záření 2 ze 12
Pyl Není k dispozici
Kvalita ovzduší Není k dispozici
Flu Activity Není k dispozici
METAR HEPS 210500Z 32013KT 9999 FEW025 19/15 Q1013 NOSIG

More Conditions Fewer Conditions

Tlak 29.92 inčů
Viditelnost 6.2 mílí
Zataženo Nemnoho 2500 ft
Rosný bod 59 °F
Vlhkost 78%
Dešťové srážky 0.00 inčů
Sněhová pokrývka Není k dispozici
UV záření 2 ze 12
Pyl Není k dispozici
Kvalita ovzduší Není k dispozici
Flu Activity Není k dispozici
METAR HEPS 210500Z 32013KT 9999 FEW025 19/15 Q1013 NOSIG

More Conditions Fewer Conditions

10-Day Weather Forecast

Almanac

Astronomie

Apr. 21, 2015 Východ Západ
Skutečný čas
Občanský soumrak
Námořní soumrak
Astronomický soumrak
Měsíc
Délka denního světla
Délka dne
Tomorrow will be .
, % of the Moon is Illuminated

Dnešní extrémy

Nejvyšší hodnoty ve státě Nejnižší hodnoty ve státě

Community

WunderPhotos

Upload Photos

1,815,319 snímků staženo!

WunderBlogs® & News

Nearby

Kvalita ovzduší

  Kvalita ovzduší Index kvality ovzduší Polutant
Not available.

Výška sněhu

Station Hloubka Nadmořská výška

Seizmická činnost

Město Distance Mag. Čas & datum
Minimální zobrazený rozsah je 2.5.

Pobřežní teplota vody

Lokalita Teplota

Stations

Poblíž povětrnostní stanice

Lokace stanice Tepl. Ochlazování větrem Rosný bod Vlhkost Vítr Precip. Výška Čas hlášení Typ